Airfield :
LOGIN :

Register | Disclaimer

   EN    FR    IT 

 










Legend :    VFR   Marginal VFR   IFR   Intensive IFR   Very Intensive IFR
Visi :
Ceiling :
>= 8 km
>= 3000ft
5 to 8 km
1000 to 3000 ft
1500m to 5 km
500 to 1000 ft
800 to 1500m
200 to 500 ft
< 800m
< 200 ft
Symbols :   Thunderstorms  Fog  Heavy snow  Heavy precipitations  Wind > 20 kt
SIGMETs :     Misc.  Thunderstorms  Icing  Turbulence  Mountain Waves  Volcanic Ashes






- Airport Elevation : 1367 ft
- IATA code : FDH


EDNY - Friedrichshafen

CURRENT METAR :
  • 271750Z 22014KT 9999 -RA FEW014 OVC026 03/02 Q0994

EXPIRED METARs :
  • 271720Z 18004KT 9999 -RA SCT006 BKN026 OVC034 01/00 Q0994
  • 271650Z 20002KT 9999 -RASN SCT004 BKN27 01/00 Q0994
  • 271620Z 20003KT 7000 -RASN SCT003 OVC026 00/M00 Q0995
  • 271550Z 19003KT 6000 -RASN SCT003 BKN012 OVC014 00/M00 Q0995
  • 271520Z 21004KT 180V240 3500 -SN BR BKN003 OVC015 00/M00 Q0996

TAF TAF EDNY
Valid from the 27 at 18:00 until the 28 at 18:00 UTC


271700Z 2718/2818 24012G25KT 6000 SCT005 BKN015
BECMG 2718/2719 26025G45KT
TEMPO 2719/2723 27035G55KT
TEMPO 2719/2804 1200 SHSN VV004 BKN008TCU
BECMG 2723/2801 25015G30KT
BECMG 2805/2807 25010KT
BECMG 2810/2812 24005KT
BECMG 2816/2818 VRB03KT



MET'MAP, your aeronautical weather chart ! - Copyright ORBIFLY December 2007 - Disclaimer

ORBIFLY MET'MAP TEAM :

Programming & Development : Alexandra Zaïnal
Concept & original design : Baudouin d'Aumeries
Assistance for programming : Marc-Olivier Méhu
Technical & hardware support : Manuel Goepfert

Contact : metmap@orbifly.com




SOURCES & CREDITS :

   NOAA